createdAt,value
2017-11-16T00:04:57.468Z,27.2
2017-11-16T00:10:51.499Z,27.2
2017-11-16T00:13:48.440Z,27.3
2017-11-16T00:16:45.488Z,27.4
2017-11-16T00:25:36.482Z,27.6
2017-11-16T00:28:33.389Z,27.6
2017-11-16T00:31:31.570Z,27.7
2017-11-16T00:34:27.450Z,27.8
2017-11-16T00:37:24.534Z,27.9
2017-11-16T00:43:18.500Z,28
2017-11-16T00:46:15.462Z,28.1
2017-11-16T00:49:12.433Z,28.2
2017-11-16T00:52:09.409Z,28.3
2017-11-16T00:55:06.460Z,28.3
2017-11-16T00:58:03.384Z,28.4
2017-11-16T01:01:00.524Z,28.4
2017-11-16T01:03:57.458Z,28.4
2017-11-16T01:15:45.567Z,28.6
2017-11-16T01:18:45.430Z,28.6
2017-11-16T01:24:36.522Z,28.7
2017-11-16T01:33:27.565Z,28.7
2017-11-16T01:39:21.577Z,28.7
2017-11-16T01:42:18.464Z,28.8
2017-11-16T01:45:16.795Z,28.8
2017-11-16T01:51:09.578Z,29
2017-11-16T01:54:06.531Z,29
2017-11-16T01:57:03.569Z,29
2017-11-16T02:00:00.422Z,29
2017-11-16T02:02:57.572Z,29.1
2017-11-16T02:05:54.470Z,29.2
2017-11-16T02:08:51.573Z,29.2
2017-11-16T02:11:48.544Z,29.3
2017-11-16T02:17:42.492Z,29.4
2017-11-16T02:23:36.606Z,29.4
2017-11-16T02:29:30.566Z,29.6
2017-11-16T02:32:28.550Z,29.6
2017-11-16T02:35:24.553Z,29.7
2017-11-16T02:44:15.618Z,29.8
2017-11-16T02:53:06.568Z,29.8
2017-11-16T02:56:03.442Z,29.8
2017-11-16T02:59:02.575Z,29.8
2017-11-16T03:01:57.473Z,29.8
2017-11-16T03:04:56.001Z,29.8
2017-11-16T03:07:51.539Z,29.8
2017-11-16T03:16:42.593Z,29.7
2017-11-16T03:22:36.547Z,29.8
2017-11-16T03:25:33.498Z,30
2017-11-16T03:28:30.547Z,30.1
2017-11-16T03:31:27.500Z,30.3
2017-11-16T03:34:26.605Z,30.4
2017-11-16T03:40:18.534Z,30.5
2017-11-16T03:43:15.475Z,30.6
2017-11-16T03:46:12.594Z,30.7
2017-11-16T03:49:09.498Z,30.8
2017-11-16T03:52:06.744Z,30.8
2017-11-16T03:58:00.630Z,30.9
2017-11-16T04:00:57.549Z,31
2017-11-16T04:03:54.659Z,31.1
2017-11-16T04:06:55.529Z,31.1
2017-11-16T04:15:42.623Z,31.2
2017-11-16T04:24:34.536Z,31.6
2017-11-16T04:27:30.571Z,31.6
2017-11-16T04:33:24.603Z,31.6
2017-11-16T04:36:21.572Z,31.6
2017-11-16T04:39:18.646Z,31.6
2017-11-16T04:42:15.538Z,31.7
2017-11-16T04:45:12.789Z,31.7
2017-11-16T04:48:09.557Z,31.8
2017-11-16T04:51:06.691Z,31.9
2017-11-16T04:54:03.604Z,32
2017-11-16T04:59:57.586Z,32
2017-11-16T05:05:51.595Z,32.1
2017-11-16T05:08:48.613Z,32.2
2017-11-16T05:11:45.664Z,32.2
2017-11-16T05:14:42.557Z,32.3
2017-11-16T05:17:39.566Z,32.3
2017-11-16T05:20:37.631Z,32.4
2017-11-16T05:26:30.605Z,32.4
2017-11-16T05:29:27.689Z,32.5
2017-11-16T05:32:24.768Z,32.6
2017-11-16T05:35:21.530Z,32.6
2017-11-16T05:38:18.637Z,32.6
2017-11-16T05:41:15.565Z,32.6
2017-11-16T05:44:12.583Z,32.8
2017-11-16T05:47:09.585Z,32.8
2017-11-16T05:50:06.631Z,32.8
2017-11-16T05:53:03.646Z,32.8
2017-11-16T05:56:00.671Z,32.8
2017-11-16T05:58:57.654Z,32.8
2017-11-16T06:01:54.641Z,32.8
2017-11-16T06:04:51.624Z,32.9
2017-11-16T06:07:48.660Z,32.9
2017-11-16T06:22:34.709Z,32.8
2017-11-16T06:25:30.653Z,32.8
2017-11-16T06:28:27.667Z,32.8
2017-11-16T06:34:21.611Z,32.9
2017-11-16T06:40:15.634Z,33
2017-11-16T06:43:12.631Z,32.8
2017-11-16T06:46:09.851Z,32.8
2017-11-16T06:49:06.637Z,32.8
2017-11-16T06:52:03.668Z,32.8
2017-11-16T06:57:57.710Z,32.9
2017-11-16T07:03:51.799Z,33
2017-11-16T07:06:51.650Z,33
2017-11-16T07:09:45.702Z,33
2017-11-16T07:12:42.579Z,33
2017-11-16T07:15:39.736Z,33
2017-11-16T07:24:30.722Z,33
2017-11-16T07:27:27.572Z,33
2017-11-16T07:30:24.745Z,33.1
2017-11-16T07:33:21.691Z,33
2017-11-16T07:36:18.688Z,33.1
2017-11-16T07:51:03.804Z,33.1
2017-11-16T07:54:00.690Z,33.1
2017-11-16T07:56:57.671Z,33.1
2017-11-16T07:59:54.701Z,33.1
2017-11-16T08:08:45.810Z,33.2
2017-11-16T09:25:28.518Z,32.4
2017-11-16T09:46:08.221Z,31.9
2017-11-16T09:49:05.292Z,31.9
2017-11-16T09:52:01.397Z,31.8
2017-11-16T10:00:52.383Z,31.6
2017-11-16T10:06:46.378Z,31.5
2017-11-16T10:15:37.338Z,31.3
2017-11-16T10:27:25.422Z,31
2017-11-16T10:45:07.498Z,30.6
2017-11-16T10:56:55.486Z,30.3
2017-11-16T11:02:49.493Z,30.2
2017-11-16T11:05:46.415Z,30.2
2017-11-16T11:08:43.454Z,30.1
2017-11-16T11:11:40.325Z,30
2017-11-16T11:17:34.393Z,30
2017-11-16T11:29:22.437Z,29.8
2017-11-16T11:35:16.446Z,29.7
2017-11-16T11:44:07.476Z,29.6
2017-11-16T11:47:04.328Z,29.6
2017-11-16T12:04:46.496Z,29.5
2017-11-16T12:16:34.565Z,29.5
2017-11-16T12:19:31.377Z,29.4
2017-11-16T12:22:28.477Z,29.4
2017-11-16T12:31:19.460Z,29.3
2017-11-16T12:40:10.439Z,29.2
2017-11-16T12:49:01.437Z,29
2017-11-16T12:51:58.461Z,28.9
2017-11-16T12:54:55.425Z,28.9
2017-11-16T13:00:50.527Z,28.8
2017-11-16T13:09:40.458Z,28.6
2017-11-16T13:12:37.401Z,28.6
2017-11-16T13:15:36.450Z,28.5
2017-11-16T13:18:31.380Z,28.4
2017-11-16T13:24:25.458Z,28.4
2017-11-16T13:27:22.433Z,28.4
2017-11-16T13:30:19.504Z,28.3
2017-11-16T13:33:16.370Z,28.3
2017-11-16T13:48:01.551Z,28.1
2017-11-16T13:50:58.390Z,28.1
2017-11-16T13:53:55.550Z,28
2017-11-16T13:56:52.419Z,28
2017-11-16T13:59:49.486Z,28
2017-11-16T14:08:41.512Z,27.9
2017-11-16T14:11:37.451Z,27.9
2017-11-16T14:14:36.493Z,27.9
2017-11-16T14:17:31.419Z,27.8
2017-11-16T14:20:28.471Z,27.8
2017-11-16T14:26:22.500Z,27.8
2017-11-16T14:29:23.626Z,27.8
2017-11-16T14:32:16.515Z,27.8
2017-11-16T14:35:13.449Z,27.7
2017-11-16T14:38:10.515Z,27.8
2017-11-16T14:41:07.442Z,27.7
2017-11-16T14:44:06.509Z,27.7
2017-11-16T14:47:01.415Z,27.6
2017-11-16T14:49:58.710Z,27.6
2017-11-16T14:52:55.414Z,27.6
2017-11-16T14:55:52.578Z,27.6
2017-11-16T14:58:49.419Z,27.6
2017-11-16T15:04:43.530Z,27.5
2017-11-16T15:07:40.450Z,27.4
2017-11-16T15:10:37.489Z,27.4
2017-11-16T15:13:34.413Z,27.4
2017-11-16T15:16:31.480Z,27.4
2017-11-16T15:19:28.470Z,27.4
2017-11-16T15:22:25.504Z,27.4
2017-11-16T15:28:19.551Z,27.3
2017-11-16T15:31:16.458Z,27.3
2017-11-16T15:34:13.510Z,27.3
2017-11-16T15:40:07.533Z,27.3
2017-11-16T15:43:04.484Z,27.2
2017-11-16T15:46:01.477Z,27.2
2017-11-16T15:51:55.530Z,27.2
2017-11-16T15:54:52.449Z,27.2
2017-11-16T16:00:47.552Z,27.1
2017-11-16T16:03:43.450Z,27.1
2017-11-16T16:06:40.528Z,27.1
2017-11-16T16:09:37.579Z,27.1
2017-11-16T16:12:34.548Z,27.1
2017-11-16T16:15:31.441Z,27
2017-11-16T16:18:28.605Z,27
2017-11-16T16:21:25.495Z,27
2017-11-16T16:27:19.476Z,27
2017-11-16T16:30:16.458Z,27
2017-11-16T16:33:13.524Z,26.9
2017-11-16T16:39:07.518Z,26.9
2017-11-16T16:42:04.482Z,26.9
2017-11-16T16:47:59.551Z,26.9
2017-11-16T16:50:55.435Z,26.9
2017-11-16T16:53:52.506Z,26.9
2017-11-16T16:59:47.543Z,26.8
2017-11-16T17:02:43.450Z,26.8
2017-11-16T17:05:40.517Z,26.8
2017-11-16T17:08:37.473Z,26.8
2017-11-16T17:14:32.634Z,26.8
2017-11-16T17:20:25.520Z,26.8
2017-11-16T17:26:19.539Z,26.8
2017-11-16T17:32:13.602Z,26.7
2017-11-16T17:44:01.555Z,26.7
2017-11-16T17:47:00.909Z,26.7
2017-11-16T17:49:55.530Z,26.7
2017-11-16T17:52:52.547Z,26.7
2017-11-16T17:55:49.612Z,26.7
2017-11-16T17:58:46.473Z,26.7
2017-11-16T18:01:44.628Z,26.7
2017-11-16T18:04:40.524Z,26.6
2017-11-16T18:07:37.558Z,26.7
2017-11-16T18:10:35.511Z,26.7
2017-11-16T18:16:29.654Z,26.7
2017-11-16T18:19:25.489Z,26.7
2017-11-16T18:22:22.595Z,26.7
2017-11-16T18:25:19.536Z,26.7
2017-11-16T18:31:13.533Z,26.7
2017-11-16T18:34:10.546Z,26.7
2017-11-16T18:37:07.608Z,26.7
2017-11-16T18:40:07.394Z,26.7
2017-11-16T18:43:02.695Z,26.7
2017-11-16T18:45:58.522Z,26.8
2017-11-16T18:48:57.573Z,26.7
2017-11-16T18:54:49.584Z,26.7
2017-11-16T19:00:44.645Z,26.8
2017-11-16T19:03:40.518Z,26.8
2017-11-16T19:06:37.612Z,26.8
2017-11-16T19:12:32.816Z,26.8
2017-11-16T19:15:28.549Z,26.8
2017-11-16T19:18:26.602Z,26.8
2017-11-16T19:21:22.483Z,26.7
2017-11-16T19:24:20.624Z,26.7
2017-11-16T19:27:16.516Z,26.7
2017-11-16T19:30:14.575Z,26.7
2017-11-16T19:33:10.548Z,26.7
2017-11-16T19:39:05.603Z,26.7
2017-11-16T19:42:02.588Z,26.7
2017-11-16T19:44:59.628Z,26.7
2017-11-16T19:47:56.551Z,26.6
2017-11-16T19:53:50.603Z,26.6
2017-11-16T19:56:47.561Z,26.6
2017-11-16T19:59:44.645Z,26.6
2017-11-16T20:05:39.952Z,26.6
2017-11-16T20:08:35.554Z,26.6
2017-11-16T20:11:32.635Z,26.5
2017-11-16T20:17:27.619Z,26.5
2017-11-16T20:26:19.596Z,26.5
2017-11-16T20:32:11.627Z,26.4
2017-11-16T20:35:09.818Z,26.5
2017-11-16T20:38:05.640Z,26.4
2017-11-16T20:41:02.635Z,26.4
2017-11-16T20:43:59.684Z,26.5
2017-11-16T20:46:56.542Z,26.5
2017-11-16T20:49:53.650Z,26.5
2017-11-16T20:52:50.575Z,26.5
2017-11-16T20:55:47.657Z,26.5
2017-11-16T20:58:44.582Z,26.5
2017-11-16T21:01:44.644Z,26.6
2017-11-16T21:04:38.552Z,26.6
2017-11-16T21:10:32.680Z,26.6
2017-11-16T21:13:32.098Z,26.6
2017-11-16T21:16:26.648Z,26.6
2017-11-16T21:19:23.574Z,26.6
2017-11-16T21:22:20.602Z,26.6
2017-11-16T21:28:14.675Z,26.6
2017-11-16T21:31:11.606Z,26.6
2017-11-16T21:34:08.627Z,26.6
2017-11-16T21:40:02.714Z,26.7
2017-11-16T21:42:59.585Z,26.7
2017-11-16T21:48:53.633Z,26.6
2017-11-16T21:51:50.667Z,26.6
2017-11-16T21:54:49.182Z,26.6
2017-11-16T21:57:44.616Z,26.6
2017-11-16T22:00:41.744Z,26.6
2017-11-16T22:03:38.624Z,26.6
2017-11-16T22:09:32.664Z,26.7
2017-11-16T22:12:29.604Z,26.7
2017-11-16T22:15:26.690Z,26.7
2017-11-16T22:18:23.589Z,26.7
2017-11-16T22:21:20.687Z,26.7
2017-11-16T22:24:17.588Z,26.7
2017-11-16T22:27:14.751Z,26.7
2017-11-16T22:30:11.615Z,26.7
2017-11-16T22:36:05.744Z,26.7
2017-11-16T22:39:02.626Z,26.6
2017-11-16T22:41:59.715Z,26.6
2017-11-16T22:45:15.768Z,26.6
2017-11-16T22:50:50.739Z,26.7
2017-11-16T22:53:47.636Z,26.7
2017-11-16T22:59:41.732Z,26.6
2017-11-16T23:02:38.602Z,26.6
2017-11-16T23:05:35.665Z,26.6
2017-11-16T23:08:32.653Z,26.6
2017-11-16T23:11:29.692Z,26.6
2017-11-16T23:17:23.763Z,26.6
2017-11-16T23:20:20.663Z,26.6
2017-11-16T23:23:18.736Z,26.7
2017-11-16T23:26:15.676Z,26.7
2017-11-16T23:32:08.725Z,26.7
2017-11-16T23:35:05.631Z,26.8
2017-11-16T23:38:02.702Z,26.8
2017-11-16T23:40:59.654Z,26.8
2017-11-16T23:43:56.720Z,26.8
2017-11-16T23:46:53.648Z,26.8
2017-11-16T23:49:50.701Z,26.8
2017-11-16T23:52:47.678Z,26.9
2017-11-16T23:58:43.486Z,27
